Time;durP1;ratioP1;P1;durP2;ratioP2;P2;SDS_P1;SDS_P2;PMS_P1;PMS_P2;Temp;Humidity;BMP_temperature;BMP_pressure;BME280_temperature;BME280_humidity;BME280_pressure;Samples;Min_cycle;Max_cycle;Signal;HPM_P1;HPM_P2
2023/03/25 00:01:07;;;;;;;2.13;0.90;;;13.70;84.20;;;;;;5053287;28;20500;-64
2023/03/25 00:03:36;;;;;;;1.45;0.82;;;13.60;84.50;;;;;;5053276;28;20033;-64
2023/03/25 00:06:05;;;;;;;0.88;0.70;;;13.70;84.10;;;;;;5052973;28;20473;-63
2023/03/25 00:08:31;;;;;;;0.98;0.52;;;13.60;83.70;;;;;;5051669;28;20025;-65
2023/03/25 00:10:59;;;;;;;0.85;0.63;;;13.50;83.70;;;;;;5051510;28;20092;-64
2023/03/25 00:13:25;;;;;;;0.70;0.60;;;13.50;83.90;;;;;;5050953;28;20093;-64
2023/03/25 00:15:57;;;;;;;3.30;0.57;;;13.50;83.90;;;;;;5051498;28;20025;-64
2023/03/25 00:18:24;;;;;;;1.90;0.70;;;13.50;84.10;;;;;;5051395;28;20016;-63
2023/03/25 00:20:51;;;;;;;1.50;0.63;;;13.50;83.40;;;;;;5053712;28;20025;-64
2023/03/25 00:23:19;;;;;;;0.95;0.65;;;13.40;83.30;;;;;;5055070;28;20033;-64
2023/03/25 00:25:46;;;;;;;1.33;0.88;;;13.50;83.50;;;;;;5055654;28;20079;-64
2023/03/25 00:28:12;;;;;;;0.50;0.50;;;13.40;83.10;;;;;;5055410;28;20093;-64
2023/03/25 00:30:38;;;;;;;1.17;0.65;;;13.40;83.40;;;;;;5055084;28;20100;-64
2023/03/25 00:33:05;;;;;;;0.75;0.75;;;13.40;83.20;;;;;;5055473;28;20033;-64
2023/03/25 00:38:15;;;;;;;2.05;0.52;;;13.40;82.80;;;;;;5055343;28;20415;-67
2023/03/25 00:40:40;;;;;;;1.75;0.60;;;13.40;82.50;;;;;;5054982;28;20083;-63
2023/03/25 00:43:06;;;;;;;1.60;0.70;;;13.40;82.90;;;;;;5055038;28;20446;-64
2023/03/25 00:45:32;;;;;;;2.00;0.50;;;13.40;82.50;;;;;;5054703;28;20082;-64
2023/03/25 00:47:58;;;;;;;1.60;0.55;;;13.40;82.50;;;;;;5054907;28;20415;-63
2023/03/25 00:50:25;;;;;;;2.53;0.65;;;13.40;82.30;;;;;;5054074;28;20025;-64
2023/03/25 00:52:52;;;;;;;0.65;0.55;;;13.40;82.10;;;;;;5055118;28;20037;-64
2023/03/25 00:55:18;;;;;;;0.98;0.70;;;13.40;81.90;;;;;;5053995;28;20471;-65
2023/03/25 00:57:44;;;;;;;1.05;0.60;;;13.40;81.60;;;;;;5055153;28;20021;-64
2023/03/25 01:00:14;;;;;;;0.90;0.50;;;13.40;80.60;;;;;;5054615;28;20039;-63
2023/03/25 01:02:40;;;;;;;0.70;0.68;;;13.40;80.80;;;;;;5054269;28;20021;-63
2023/03/25 01:05:09;;;;;;;0.50;0.50;;;13.30;80.10;;;;;;5054866;28;20033;-63
2023/03/25 01:07:35;;;;;;;0.80;0.60;;;13.30;79.90;;;;;;5054171;28;20083;-63
2023/03/25 01:10:02;;;;;;;0.50;0.50;;;13.30;79.10;;;;;;5055455;28;20104;-63
2023/03/25 01:12:27;;;;;;;2.88;0.60;;;13.30;79.10;;;;;;5054661;28;20033;-66
2023/03/25 01:14:54;;;;;;;1.35;0.40;;;13.30;78.20;;;;;;5054891;28;20094;-63
2023/03/25 01:17:20;;;;;;;0.80;0.50;;;13.30;78.20;;;;;;5054018;28;20102;-66
2023/03/25 01:19:46;;;;;;;0.93;0.40;;;13.40;78.00;;;;;;5054563;28;20450;-65
2023/03/25 01:22:12;;;;;;;0.77;0.60;;;13.30;78.10;;;;;;5054630;28;20033;-63
2023/03/25 01:24:37;;;;;;;2.63;0.70;;;13.30;78.10;;;;;;5053757;28;20039;-63
2023/03/25 01:27:04;;;;;;;0.95;0.63;;;13.30;78.10;;;;;;5054127;28;20452;-65
2023/03/25 01:29:30;;;;;;;0.57;0.50;;;13.30;78.20;;;;;;5053958;28;20029;-65
2023/03/25 01:31:56;;;;;;;0.82;0.70;;;13.30;79.00;;;;;;5052939;28;20424;-64
2023/03/25 01:34:22;;;;;;;0.40;0.40;;;13.20;79.10;;;;;;5054074;28;20090;-64
2023/03/25 01:36:48;;;;;;;0.90;0.52;;;13.20;78.90;;;;;;5053896;28;20025;-63
2023/03/25 01:39:17;;;;;;;2.17;0.80;;;13.20;79.30;;;;;;5054166;28;20373;-65
2023/03/25 01:41:45;;;;;;;0.77;0.60;;;13.20;79.50;;;;;;5054283;28;20033;-65
2023/03/25 01:44:20;;;;;;;0.70;0.60;;;13.20;79.90;;;;;;5054020;28;20049;-65
2023/03/25 01:46:47;;;;;;;0.98;0.70;;;13.10;80.20;;;;;;5054187;28;20087;-63
2023/03/25 01:49:20;;;;;;;0.68;0.57;;;13.10;80.40;;;;;;5054108;28;20028;-64
2023/03/25 01:51:49;;;;;;;1.52;0.82;;;13.10;80.60;;;;;;5054043;28;20489;-65
2023/03/25 01:54:16;;;;;;;0.80;0.77;;;13.10;80.90;;;;;;5054341;28;20094;-65
2023/03/25 01:56:45;;;;;;;0.82;0.70;;;13.00;81.10;;;;;;5054130;28;20437;-64
2023/03/25 01:59:14;;;;;;;1.60;0.63;;;13.00;81.30;;;;;;5054007;28;20377;-63
2023/03/25 02:01:40;;;;;;;0.90;0.60;;;13.00;81.50;;;;;;5053463;28;20037;-64
2023/03/25 02:04:10;;;;;;;0.85;0.60;;;13.00;81.30;;;;;;5053852;28;20025;-64
2023/03/25 02:06:45;;;;;;;0.93;0.70;;;13.10;81.60;;;;;;5053460;28;20060;-65
2023/03/25 02:09:14;;;;;;;1.17;0.80;;;13.00;81.60;;;;;;5053490;28;20029;-64
2023/03/25 02:11:39;;;;;;;1.17;0.80;;;13.00;81.80;;;;;;5053175;28;20060;-64
2023/03/25 02:14:08;;;;;;;2.05;0.80;;;13.00;81.70;;;;;;5053679;28;20064;-64
2023/03/25 02:16:37;;;;;;;0.75;0.70;;;13.00;81.80;;;;;;5053311;28;20025;-64
2023/03/25 02:19:31;;;;;;;1.50;0.65;;;13.00;81.60;;;;;;5053590;28;20040;-64
2023/03/25 02:22:24;;;;;;;1.45;0.57;;;13.00;82.00;;;;;;5053553;28;20039;-65
2023/03/25 02:25:06;;;;;;;0.98;0.70;;;13.00;82.50;;;;;;5053376;28;20040;-64
2023/03/25 02:27:49;;;;;;;1.33;0.70;;;13.00;82.70;;;;;;5053019;28;20021;-64
2023/03/25 02:30:24;;;;;;;0.98;0.63;;;12.90;82.90;;;;;;5053382;28;20033;-63
2023/03/25 02:33:12;;;;;;;0.80;0.80;;;12.90;83.30;;;;;;5053398;28;20029;-64
2023/03/25 02:36:05;;;;;;;1.50;1.08;;;12.90;83.30;;;;;;5052904;28;20057;-65
2023/03/25 02:38:49;;;;;;;1.80;1.00;;;12.90;83.70;;;;;;5052877;28;20428;-64
2023/03/25 02:41:32;;;;;;;1.20;0.70;;;12.90;84.00;;;;;;5053264;28;20405;-64
2023/03/25 02:44:06;;;;;;;1.00;0.70;;;12.90;84.20;;;;;;5052160;28;20063;-65
2023/03/25 02:46:33;;;;;;;1.30;0.80;;;12.80;84.40;;;;;;5052665;28;20039;-64
2023/03/25 02:49:25;;;;;;;1.17;0.90;;;12.80;84.60;;;;;;5052985;28;20116;-64
2023/03/25 02:52:00;;;;;;;1.42;1.05;;;12.80;84.90;;;;;;5047465;28;20094;-64
2023/03/25 02:54:28;;;;;;;1.25;1.00;;;12.80;85.00;;;;;;5052182;28;20033;-64
2023/03/25 02:56:56;;;;;;;2.67;1.08;;;12.80;84.90;;;;;;5052863;28;20032;-64
2023/03/25 02:59:24;;;;;;;1.95;1.20;;;12.80;85.30;;;;;;5050849;28;20024;-64
2023/03/25 03:01:57;;;;;;;1.10;0.98;;;12.80;85.30;;;;;;5052464;28;20111;-65
2023/03/25 03:04:24;;;;;;;3.33;1.02;;;12.80;85.40;;;;;;5052288;28;20029;-64
2023/03/25 03:06:52;;;;;;;0.88;0.88;;;12.70;85.50;;;;;;5052598;28;20035;-65
2023/03/25 03:09:21;;;;;;;1.23;0.90;;;12.80;85.70;;;;;;5052385;28;20492;-63
2023/03/25 03:11:56;;;;;;;1.77;1.17;;;12.80;85.60;;;;;;5052137;28;20469;-63
2023/03/25 03:14:30;;;;;;;2.03;0.80;;;12.70;85.90;;;;;;5052035;28;20040;-63
2023/03/25 03:17:05;;;;;;;1.10;1.00;;;12.70;86.00;;;;;;5052522;28;20095;-63
2023/03/25 03:19:55;;;;;;;1.35;1.25;;;12.70;86.30;;;;;;5051916;28;20028;-64
2023/03/25 03:22:51;;;;;;;2.30;1.13;;;12.70;86.60;;;;;;5051734;28;20040;-67
2023/03/25 03:25:46;;;;;;;1.20;1.10;;;12.70;86.50;;;;;;5052542;28;20064;-63
2023/03/25 03:28:24;;;;;;;1.38;1.00;;;12.60;86.80;;;;;;5052320;28;20521;-63
2023/03/25 03:31:14;;;;;;;1.17;1.08;;;12.60;87.10;;;;;;5052801;28;20036;-63
2023/03/25 03:33:51;;;;;;;1.20;1.10;;;12.70;86.70;;;;;;5052384;28;20115;-63
2023/03/25 03:36:21;;;;;;;2.67;1.20;;;12.60;86.90;;;;;;5052895;28;20116;-63
2023/03/25 03:38:54;;;;;;;2.95;1.40;;;12.60;87.20;;;;;;5052062;28;20025;-63
2023/03/25 03:41:25;;;;;;;1.75;1.10;;;12.60;87.40;;;;;;5051650;28;20080;-63
2023/03/25 03:44:09;;;;;;;2.35;1.10;;;12.60;87.40;;;;;;5052075;28;20084;-64
2023/03/25 03:46:44;;;;;;;1.27;1.13;;;12.60;87.40;;;;;;5051794;28;20106;-64
2023/03/25 03:49:16;;;;;;;1.60;1.30;;;12.50;87.10;;;;;;5052553;28;20028;-63
2023/03/25 03:51:51;;;;;;;1.65;1.20;;;12.60;87.30;;;;;;5052031;28;20044;-63
2023/03/25 03:54:22;;;;;;;1.40;1.00;;;12.50;87.10;;;;;;5052582;28;20063;-63
2023/03/25 03:56:57;;;;;;;1.65;1.10;;;12.50;87.20;;;;;;5052311;28;20029;-63
2023/03/25 03:59:37;;;;;;;1.33;0.98;;;12.60;87.20;;;;;;5052624;28;20103;-64
2023/03/25 04:02:12;;;;;;;1.27;1.17;;;12.60;86.80;;;;;;5052740;28;20390;-64
2023/03/25 04:04:41;;;;;;;2.22;1.58;;;12.60;86.70;;;;;;5051802;28;20037;-64
2023/03/25 04:07:26;;;;;;;1.50;1.27;;;12.60;86.80;;;;;;5052372;28;20025;-63
2023/03/25 04:10:20;;;;;;;1.63;1.20;;;12.50;87.60;;;;;;5052423;28;20485;-64
2023/03/25 04:12:51;;;;;;;1.75;1.30;;;12.50;87.40;;;;;;5052276;28;20079;-64
2023/03/25 04:15:17;;;;;;;1.98;1.40;;;12.50;87.60;;;;;;5052491;28;20064;-64
2023/03/25 04:17:44;;;;;;;4.32;1.73;;;12.50;87.90;;;;;;5052193;28;20457;-64
2023/03/25 04:20:15;;;;;;;2.33;1.48;;;12.40;88.00;;;;;;5052778;28;20021;-64
2023/03/25 04:22:44;;;;;;;1.63;1.52;;;12.40;88.20;;;;;;5051616;28;20104;-64
2023/03/25 04:25:12;;;;;;;3.83;1.40;;;12.40;88.30;;;;;;5052252;28;20037;-64
2023/03/25 04:27:38;;;;;;;2.08;1.52;;;12.40;88.30;;;;;;5051911;28;20052;-64
2023/03/25 04:30:07;;;;;;;2.33;1.40;;;12.40;88.40;;;;;;5052284;28;20462;-64
2023/03/25 04:32:33;;;;;;;2.45;1.45;;;12.30;88.60;;;;;;5052048;28;20029;-64
2023/03/25 04:34:59;;;;;;;2.00;1.42;;;12.30;88.90;;;;;;5052445;28;20021;-64
2023/03/25 04:37:26;;;;;;;4.15;1.70;;;12.30;88.90;;;;;;5051758;28;20029;-68
2023/03/25 04:39:54;;;;;;;3.13;1.83;;;12.30;89.00;;;;;;5052310;28;20385;-64
2023/03/25 04:42:24;;;;;;;2.00;1.50;;;12.30;89.10;;;;;;5052048;28;20115;-64
2023/03/25 04:44:51;;;;;;;2.60;1.60;;;12.30;89.20;;;;;;5051643;28;20076;-64
2023/03/25 04:47:22;;;;;;;2.38;1.55;;;12.30;89.20;;;;;;5052113;28;20025;-64
2023/03/25 04:49:47;;;;;;;1.90;1.60;;;12.20;89.50;;;;;;5051533;28;20021;-64
2023/03/25 04:52:13;;;;;;;2.58;1.70;;;12.20;89.70;;;;;;5051839;28;20078;-64
2023/03/25 04:54:39;;;;;;;2.92;1.70;;;12.20;90.00;;;;;;5051540;28;20032;-64
2023/03/25 04:57:07;;;;;;;2.95;1.63;;;12.20;89.90;;;;;;5052071;28;20481;-64
2023/03/25 04:59:33;;;;;;;5.22;2.15;;;12.10;89.90;;;;;;5050974;28;20029;-64
2023/03/25 05:02:01;;;;;;;2.75;1.50;;;12.20;89.80;;;;;;5051460;28;20120;-64
2023/03/25 05:04:26;;;;;;;2.00;1.67;;;12.10;89.80;;;;;;5051638;28;20032;-66
2023/03/25 05:06:52;;;;;;;2.80;1.52;;;12.10;89.90;;;;;;5053432;28;20025;-64
2023/03/25 05:09:23;;;;;;;2.50;1.40;;;12.10;89.80;;;;;;5056175;28;20017;-64
2023/03/25 05:11:50;;;;;;;2.20;1.57;;;12.10;89.80;;;;;;5055443;28;20036;-64
2023/03/25 05:14:19;;;;;;;3.53;1.40;;;12.10;89.50;;;;;;5055749;28;20258;-64
2023/03/25 05:16:45;;;;;;;2.22;1.65;;;12.10;89.60;;;;;;5055360;28;20029;-64
2023/03/25 05:19:12;;;;;;;2.50;1.75;;;12.00;89.60;;;;;;5055738;28;20465;-64
2023/03/25 05:21:39;;;;;;;3.70;2.35;;;12.00;89.70;;;;;;5055273;28;20047;-64
2023/03/25 05:24:09;;;;;;;3.60;1.35;;;12.10;88.30;;;;;;5055585;28;20028;-64
2023/03/25 05:26:38;;;;;;;3.78;1.50;;;12.10;88.10;;;;;;5054503;28;20457;-63
2023/03/25 05:29:09;;;;;;;2.67;1.40;;;12.10;87.90;;;;;;5055113;28;20025;-63
2023/03/25 05:31:35;;;;;;;1.42;1.27;;;12.10;87.80;;;;;;5054975;28;20115;-63
2023/03/25 05:34:05;;;;;;;2.40;1.23;;;12.10;87.70;;;;;;5055266;28;20033;-63
2023/03/25 05:36:31;;;;;;;4.25;1.52;;;12.10;87.70;;;;;;5054714;28;20029;-65
2023/03/25 05:38:57;;;;;;;2.58;1.30;;;12.10;87.60;;;;;;5055169;28;20040;-64
2023/03/25 05:41:31;;;;;;;3.22;1.63;;;12.00;87.50;;;;;;5055026;28;20029;-63
2023/03/25 05:43:59;;;;;;;1.88;1.23;;;12.00;87.70;;;;;;5055026;28;20071;-64
2023/03/25 05:46:25;;;;;;;3.00;1.30;;;12.00;87.60;;;;;;5055033;28;20052;-64
2023/03/25 05:48:51;;;;;;;2.45;1.48;;;12.10;87.60;;;;;;5053430;28;20070;-64
2023/03/25 05:51:20;;;;;;;4.25;1.10;;;12.10;87.10;;;;;;5054843;28;20033;-64
2023/03/25 05:53:49;;;;;;;6.32;1.50;;;12.10;86.80;;;;;;5054478;28;20025;-64
2023/03/25 05:56:16;;;;;;;2.30;1.38;;;12.20;86.20;;;;;;5054817;28;20052;-64
2023/03/25 05:58:47;;;;;;;2.17;1.45;;;12.20;85.50;;;;;;5054502;28;20044;-64
2023/03/25 06:01:14;;;;;;;2.45;1.35;;;12.30;84.80;;;;;;5054966;28;20029;-64
2023/03/25 06:03:40;;;;;;;2.95;1.33;;;12.30;83.90;;;;;;5053809;28;20025;-64
2023/03/25 06:06:12;;;;;;;3.72;1.30;;;12.40;83.80;;;;;;5054554;28;20032;-64
2023/03/25 06:08:51;;;;;;;2.22;1.25;;;12.40;83.10;;;;;;5053970;28;20062;-64
2023/03/25 06:11:18;;;;;;;3.47;1.48;;;12.40;83.10;;;;;;5054482;28;20025;-64
2023/03/25 06:13:48;;;;;;;3.10;1.30;;;12.40;82.50;;;;;;5054099;28;20033;-64
2023/03/25 06:16:19;;;;;;;2.50;1.52;;;12.40;82.30;;;;;;5054429;28;20115;-63
2023/03/25 06:18:54;;;;;;;2.78;1.20;;;12.40;82.50;;;;;;5053178;28;20025;-63
2023/03/25 06:21:25;;;;;;;1.75;1.00;;;12.40;82.20;;;;;;5053931;28;20095;-64
2023/03/25 06:23:52;;;;;;;3.80;1.08;;;12.40;82.40;;;;;;5033829;28;20033;-63
2023/03/25 06:26:20;;;;;;;5.25;1.00;;;12.40;82.60;;;;;;5034396;28;20410;-63
2023/03/25 06:28:46;;;;;;;1.95;0.90;;;12.30;83.00;;;;;;5034018;28;20105;-63
2023/03/25 06:31:16;;;;;;;2.22;1.10;;;12.30;82.80;;;;;;5033950;28;20120;-63
2023/03/25 06:33:47;;;;;;;2.80;0.98;;;12.30;82.20;;;;;;5053607;28;20496;-64
2023/03/25 06:36:17;;;;;;;3.95;1.10;;;12.30;82.40;;;;;;5054141;28;20029;-63
2023/03/25 06:38:45;;;;;;;2.05;1.00;;;12.30;82.20;;;;;;5053398;28;20033;-64
2023/03/25 06:41:12;;;;;;;2.22;1.10;;;12.40;81.70;;;;;;5053564;28;20075;-64
2023/03/25 06:43:38;;;;;;;4.05;1.35;;;12.40;81.40;;;;;;5053328;28;20048;-64
2023/03/25 06:46:04;;;;;;;3.70;1.10;;;12.40;81.40;;;;;;5053830;28;20041;-64
2023/03/25 06:48:30;;;;;;;5.22;1.27;;;12.40;81.70;;;;;;5053810;28;20031;-64
2023/03/25 06:50:56;;;;;;;1.10;0.80;;;12.40;81.40;;;;;;5053088;28;20172;-64
2023/03/25 06:53:21;;;;;;;4.93;1.30;;;12.40;81.60;;;;;;5053687;28;20060;-64
2023/03/25 06:55:47;;;;;;;2.60;1.10;;;12.40;81.70;;;;;;5053622;28;20020;-64
2023/03/25 06:58:13;;;;;;;3.03;1.10;;;12.40;81.70;;;;;;5053342;28;20029;-64
2023/03/25 07:00:38;;;;;;;2.70;1.30;;;12.40;81.20;;;;;;5053039;28;20082;-64
2023/03/25 07:03:04;;;;;;;2.72;1.00;;;12.40;81.00;;;;;;5053545;28;20021;-64
2023/03/25 07:05:30;;;;;;;3.60;1.45;;;12.40;80.80;;;;;;5053675;28;20032;-64
2023/03/25 07:07:57;;;;;;;1.80;0.90;;;12.40;81.00;;;;;;5052919;28;20029;-63
2023/03/25 07:10:22;;;;;;;4.53;1.45;;;12.40;80.80;;;;;;5052812;28;20033;-65
2023/03/25 07:12:48;;;;;;;3.53;1.05;;;12.40;81.00;;;;;;5052643;28;20457;-63
2023/03/25 07:15:14;;;;;;;5.28;1.00;;;12.40;80.40;;;;;;5053417;28;20105;-63
2023/03/25 07:17:41;;;;;;;3.40;1.08;;;12.40;80.00;;;;;;5051635;28;20424;-64
2023/03/25 07:20:09;;;;;;;1.90;1.08;;;12.40;79.10;;;;;;5052002;28;20457;-63
2023/03/25 07:22:35;;;;;;;2.15;0.90;;;12.40;78.60;;;;;;5051915;28;20055;-63
2023/03/25 07:25:00;;;;;;;3.28;1.20;;;12.40;78.60;;;;;;5052764;28;20025;-63
2023/03/25 07:27:26;;;;;;;2.85;1.20;;;12.40;77.50;;;;;;5052051;28;20481;-64
2023/03/25 07:29:52;;;;;;;5.13;1.25;;;12.40;77.80;;;;;;5051322;28;20036;-63
2023/03/25 07:32:18;;;;;;;2.42;1.08;;;12.40;76.60;;;;;;5053072;28;20107;-63
2023/03/25 07:34:43;;;;;;;1.77;0.88;;;12.40;76.80;;;;;;5052743;28;20029;-63
2023/03/25 07:37:09;;;;;;;5.68;1.23;;;12.40;76.50;;;;;;5052949;28;20036;-63
2023/03/25 07:39:35;;;;;;;3.53;0.80;;;12.50;76.30;;;;;;5051221;28;20460;-63
2023/03/25 07:42:01;;;;;;;5.50;1.33;;;12.50;76.10;;;;;;5052828;28;20556;-64
2023/03/25 07:44:26;;;;;;;2.47;1.30;;;12.50;75.80;;;;;;5052994;28;20072;-63
2023/03/25 07:46:52;;;;;;;2.55;1.10;;;12.60;75.40;;;;;;5052848;28;20064;-63
2023/03/25 07:49:18;;;;;;;3.25;1.10;;;12.60;74.50;;;;;;5053728;28;20028;-63
2023/03/25 07:51:44;;;;;;;5.93;1.83;;;12.70;73.70;;;;;;5053247;28;20052;-65
2023/03/25 07:54:10;;;;;;;3.60;1.10;;;12.70;73.40;;;;;;5053359;28;20033;-63
2023/03/25 07:56:36;;;;;;;2.38;0.73;;;12.70;72.80;;;;;;5053108;28;20032;-65
2023/03/25 07:59:03;;;;;;;2.83;0.85;;;12.70;72.60;;;;;;5052709;28;20041;-64
2023/03/25 08:01:28;;;;;;;2.60;1.10;;;12.80;72.00;;;;;;5052211;28;20032;-65
2023/03/25 08:03:54;;;;;;;4.47;1.00;;;12.90;70.90;;;;;;5050463;28;20032;-64
2023/03/25 08:06:20;;;;;;;4.00;0.98;;;12.90;70.10;;;;;;5052354;28;20029;-64
2023/03/25 08:08:45;;;;;;;3.63;0.90;;;13.00;70.00;;;;;;5052117;28;20086;-64
2023/03/25 08:11:11;;;;;;;2.85;0.60;;;13.00;70.20;;;;;;5051262;28;20465;-63
2023/03/25 08:13:37;;;;;;;2.17;1.13;;;12.90;69.70;;;;;;5052147;28;20025;-64
2023/03/25 08:16:08;;;;;;;1.38;0.68;;;13.00;70.00;;;;;;5052107;28;20021;-65
2023/03/25 08:18:34;;;;;;;5.85;1.15;;;13.00;69.50;;;;;;5052206;28;20025;-64
2023/03/25 08:21:00;;;;;;;4.20;1.40;;;13.00;69.50;;;;;;5051694;28;20043;-65
2023/03/25 08:23:25;;;;;;;1.73;0.98;;;13.00;69.30;;;;;;5052247;28;20071;-64
2023/03/25 08:25:52;;;;;;;3.05;1.08;;;13.00;69.50;;;;;;5051629;28;20025;-64
2023/03/25 08:28:22;;;;;;;3.03;1.13;;;13.00;69.50;;;;;;5050839;28;20036;-64
2023/03/25 08:30:54;;;;;;;5.13;1.40;;;12.90;68.80;;;;;;5051920;28;20029;-64
2023/03/25 08:33:39;;;;;;;3.38;1.00;;;13.00;69.00;;;;;;5052170;28;20103;-64
2023/03/25 08:36:06;;;;;;;3.67;1.20;;;13.00;68.80;;;;;;5051596;28;20030;-64
2023/03/25 08:38:32;;;;;;;2.50;0.98;;;12.90;69.00;;;;;;5052176;28;20033;-64
2023/03/25 08:40:58;;;;;;;2.50;1.00;;;13.00;68.50;;;;;;5051375;28;20522;-64
2023/03/25 08:43:24;;;;;;;2.55;1.05;;;13.00;68.10;;;;;;5055719;28;20401;-64
2023/03/25 08:45:50;;;;;;;4.93;1.20;;;13.00;68.30;;;;;;5055636;28;20382;-63
2023/03/25 08:48:16;;;;;;;6.82;1.30;;;13.00;68.20;;;;;;5055627;28;20025;-64
2023/03/25 08:50:42;;;;;;;3.03;1.10;;;13.00;67.70;;;;;;5055578;28;20033;-65
2023/03/25 08:53:08;;;;;;;3.67;1.20;;;13.00;67.60;;;;;;5056379;28;20060;-63
2023/03/25 08:55:33;;;;;;;3.10;0.90;;;13.00;67.40;;;;;;5056084;28;20457;-64
2023/03/25 08:58:03;;;;;;;3.70;1.00;;;13.00;67.20;;;;;;5055879;28;20126;-64
2023/03/25 09:00:29;;;;;;;5.78;1.15;;;13.00;67.60;;;;;;5055561;28;20473;-64
2023/03/25 09:02:57;;;;;;;3.67;1.00;;;13.00;67.90;;;;;;5055305;28;20033;-66
2023/03/25 09:05:24;;;;;;;3.60;0.82;;;13.00;68.10;;;;;;5056058;28;20037;-65
2023/03/25 09:07:49;;;;;;;5.90;1.50;;;13.00;68.40;;;;;;5055031;28;20539;-65
2023/03/25 09:10:15;;;;;;;5.55;1.17;;;13.00;68.10;;;;;;5055170;28;20025;-65
2023/03/25 09:12:41;;;;;;;3.72;0.90;;;13.00;68.00;;;;;;5055137;28;20029;-66
2023/03/25 09:15:08;;;;;;;4.85;0.95;;;12.90;68.40;;;;;;5055003;28;20027;-63
2023/03/25 09:17:34;;;;;;;3.33;0.95;;;13.00;68.60;;;;;;5054968;28;20064;-64
2023/03/25 09:20:00;;;;;;;8.38;1.23;;;13.00;67.90;;;;;;5054467;28;20045;-65
2023/03/25 09:22:25;;;;;;;4.10;0.90;;;13.00;68.10;;;;;;5055494;28;20104;-66
2023/03/25 09:24:51;;;;;;;3.30;1.00;;;13.00;67.80;;;;;;5054980;28;20021;-64
2023/03/25 09:27:17;;;;;;;4.45;1.13;;;13.10;67.20;;;;;;5055147;28;20021;-64
2023/03/25 09:29:42;;;;;;;2.40;0.82;;;13.10;66.50;;;;;;5055000;28;20361;-68
2023/03/25 09:32:08;;;;;;;3.28;0.80;;;13.20;66.70;;;;;;5055180;28;20025;-65
2023/03/25 09:34:34;;;;;;;6.18;1.00;;;13.20;66.30;;;;;;5054985;28;20516;-64
2023/03/25 09:37:02;;;;;;;3.80;0.90;;;13.20;66.20;;;;;;5054669;28;20072;-63
2023/03/25 09:39:28;;;;;;;4.22;1.20;;;13.20;64.90;;;;;;5055010;28;20377;-64
2023/03/25 09:42:21;;;;;;;2.78;1.10;;;13.20;65.70;;;;;;5054629;28;20040;-64
2023/03/25 09:45:09;;;;;;;3.92;1.23;;;13.30;65.70;;;;;;5054645;28;20041;-64
2023/03/25 09:47:35;;;;;;;4.97;1.05;;;13.30;65.30;;;;;;5055002;28;20024;-64
2023/03/25 09:50:09;;;;;;;4.07;1.00;;;13.30;63.30;;;;;;5053128;28;20025;-64
2023/03/25 09:52:55;;;;;;;4.90;0.98;;;13.40;63.40;;;;;;5052797;28;20391;-64
2023/03/25 09:55:26;;;;;;;4.88;1.02;;;13.40;63.60;;;;;;5050526;28;20052;-63
2023/03/25 09:58:15;;;;;;;5.32;1.05;;;13.40;63.90;;;;;;5054479;28;20025;-64
2023/03/25 10:00:42;;;;;;;2.45;0.90;;;13.40;63.50;;;;;;5054468;28;20037;-65
2023/03/25 10:03:24;;;;;;;4.05;1.00;;;13.50;64.10;;;;;;5054818;28;20017;-63
2023/03/25 10:06:12;;;;;;;3.95;1.10;;;13.50;63.50;;;;;;5053923;28;20395;-64
2023/03/25 10:08:40;;;;;;;4.47;1.20;;;13.50;63.20;;;;;;5054563;28;20037;-63
2023/03/25 10:11:24;;;;;;;3.33;1.20;;;13.50;63.30;;;;;;5054270;28;20155;-64
2023/03/25 10:13:53;;;;;;;3.72;1.10;;;13.50;63.60;;;;;;5054066;28;20036;-64
2023/03/25 10:16:42;;;;;;;1.45;0.88;;;13.50;62.60;;;;;;5054359;28;20029;-64
2023/03/25 10:19:22;;;;;;;3.78;1.10;;;13.50;62.70;;;;;;5043648;28;20111;-64
2023/03/25 10:21:51;;;;;;;5.05;1.08;;;13.50;62.50;;;;;;5053633;28;20603;-63
2023/03/25 10:24:59;;;;;;;2.85;0.70;;;13.60;62.10;;;;;;5054226;28;20033;-64
2023/03/25 10:27:40;;;;;;;2.58;0.70;;;13.50;61.60;;;;;;5053455;28;20044;-65
2023/03/25 10:30:08;;;;;;;2.97;1.10;;;13.60;61.00;;;;;;5053826;28;20032;-64
2023/03/25 10:32:58;;;;;;;6.22;0.90;;;13.60;61.10;;;;;;5054386;28;20041;-64
2023/03/25 10:35:31;;;;;;;4.22;0.93;;;13.60;60.70;;;;;;5053497;28;20485;-64
2023/03/25 10:38:20;;;;;;;2.88;1.10;;;13.60;60.60;;;;;;5053938;28;20029;-64
2023/03/25 10:40:49;;;;;;;5.70;1.10;;;13.60;60.80;;;;;;5053600;28;20098;-66
2023/03/25 10:43:23;;;;;;;3.30;0.80;;;13.70;61.10;;;;;;5052193;28;20136;-64
2023/03/25 10:45:51;;;;;;;6.18;0.90;;;13.60;60.90;;;;;;5053179;28;20053;-64
2023/03/25 10:48:28;;;;;;;4.15;1.05;;;13.60;59.80;;;;;;5053407;28;20500;-63
2023/03/25 10:51:12;;;;;;;3.40;1.08;;;13.60;58.90;;;;;;5052720;28;20035;-64
2023/03/25 10:53:40;;;;;;;6.93;1.00;;;13.60;59.20;;;;;;5053373;28;20061;-64
2023/03/25 10:56:18;;;;;;;3.85;0.75;;;13.50;59.40;;;;;;5052763;28;20186;-64
2023/03/25 10:58:54;;;;;;;2.28;0.85;;;13.40;59.30;;;;;;5053693;28;20090;-64
2023/03/25 11:01:41;;;;;;;2.45;0.90;;;13.40;59.80;;;;;;5053633;28;20079;-65
2023/03/25 11:04:18;;;;;;;5.57;1.15;;;13.40;60.00;;;;;;5052580;28;20187;-65
2023/03/25 11:06:51;;;;;;;1.88;1.02;;;13.40;59.10;;;;;;5053501;28;20029;-64
2023/03/25 11:09:29;;;;;;;2.42;0.93;;;13.40;58.80;;;;;;5053313;28;20138;-64
2023/03/25 11:11:58;;;;;;;1.67;0.88;;;13.50;58.70;;;;;;5052709;28;20040;-65
2023/03/25 11:14:26;;;;;;;2.45;1.10;;;13.50;58.60;;;;;;5053602;28;20462;-64
2023/03/25 11:17:04;;;;;;;3.53;0.82;;;13.60;57.50;;;;;;5052958;28;20021;-64
2023/03/25 11:19:41;;;;;;;1.88;0.88;;;13.50;57.10;;;;;;5053220;28;20025;-64
2023/03/25 11:22:15;;;;;;;2.08;0.60;;;13.60;56.70;;;;;;5052722;28;20033;-64
2023/03/25 11:24:44;;;;;;;1.85;0.73;;;13.60;56.20;;;;;;5053240;28;20033;-63
2023/03/25 11:27:18;;;;;;;7.97;1.15;;;13.60;56.20;;;;;;5052289;28;20024;-64
2023/03/25 11:30:02;;;;;;;3.58;0.93;;;13.70;56.40;;;;;;5052920;28;20024;-64
2023/03/25 11:32:34;;;;;;;2.63;0.93;;;13.70;55.80;;;;;;5053074;28;20028;-64
2023/03/25 11:35:06;;;;;;;2.45;0.93;;;13.90;55.30;;;;;;5052364;28;20039;-63
2023/03/25 11:37:35;;;;;;;;;;;13.90;55.20;;;;;;5053154;28;20028;-63
2023/03/25 11:40:10;;;;;;;1.70;0.77;;;13.90;54.60;;;;;;5051939;28;19958;-64
2023/03/25 11:42:41;;;;;;;3.30;0.88;;;14.00;54.30;;;;;;5052436;28;20033;-65
2023/03/25 11:45:18;;;;;;;;;;;14.10;54.00;;;;;;5052589;28;20520;-64
2023/03/25 11:47:44;;;;;;;2.25;0.85;;;14.10;54.10;;;;;;5051390;28;19939;-64
2023/03/25 11:50:22;;;;;;;5.10;1.17;;;14.20;54.10;;;;;;5050747;28;20029;-65
2023/03/25 11:52:52;;;;;;;2.63;0.80;;;14.20;54.10;;;;;;5052709;28;20393;-65
2023/03/25 11:55:22;;;;;;;5.10;1.10;;;14.30;54.00;;;;;;5052494;28;20116;-64
2023/03/25 11:57:49;;;;;;;4.05;0.90;;;14.40;54.00;;;;;;5052225;28;20026;-64
2023/03/25 12:00:25;;;;;;;2.78;1.00;;;14.40;54.30;;;;;;5052352;28;20465;-64
2023/03/25 12:03:12;;;;;;;2.42;0.93;;;14.50;54.10;;;;;;5052052;28;20017;-67
2023/03/25 12:05:38;;;;;;;2.22;1.00;;;14.40;52.70;;;;;;5052311;28;20052;-64
2023/03/25 12:08:15;;;;;;;1.85;0.82;;;14.50;53.50;;;;;;5051550;28;20035;-65
2023/03/25 12:11:02;;;;;;;1.75;0.70;;;14.60;52.90;;;;;;5052138;28;20420;-64
2023/03/25 12:13:49;;;;;;;2.33;0.77;;;14.60;52.30;;;;;;5052441;28;20037;-64
2023/03/25 12:16:36;;;;;;;2.83;1.00;;;14.60;51.50;;;;;;5051233;28;20063;-64
2023/03/25 12:19:11;;;;;;;1.85;0.80;;;14.50;52.10;;;;;;5051581;28;20021;-64
2023/03/25 12:21:39;;;;;;;3.22;0.93;;;14.50;52.60;;;;;;5052173;28;20036;-64
2023/03/25 12:24:35;;;;;;;3.03;1.10;;;14.50;52.30;;;;;;5051558;28;20083;-64
2023/03/25 12:27:37;;;;;;;2.08;0.93;;;14.50;52.90;;;;;;5051897;28;20096;-64
2023/03/25 12:30:34;;;;;;;2.83;1.00;;;14.50;53.70;;;;;;5051897;28;20033;-64
2023/03/25 12:33:12;;;;;;;2.85;1.00;;;14.50;52.70;;;;;;5051854;28;20087;-64
2023/03/25 12:35:46;;;;;;;2.53;1.10;;;14.60;53.70;;;;;;5052138;28;20489;-63
2023/03/25 12:38:35;;;;;;;3.10;1.00;;;14.70;52.40;;;;;;5052013;28;20247;-64
2023/03/25 12:41:28;;;;;;;7.05;2.40;;;14.80;51.70;;;;;;5040213;28;20065;-65
2023/03/25 12:44:09;;;;;;;3.45;1.50;;;14.70;51.30;;;;;;5051391;28;20041;-63
2023/03/25 12:47:05;;;;;;;1.80;1.00;;;14.70;51.70;;;;;;5052505;28;20111;-64
2023/03/25 12:50:02;;;;;;;2.25;0.80;;;14.80;52.10;;;;;;5051291;28;20119;-64
2023/03/25 12:52:58;;;;;;;4.25;1.17;;;14.80;52.20;;;;;;5042076;28;20045;-63
2023/03/25 12:55:23;;;;;;;2.08;1.20;;;14.80;51.20;;;;;;5052541;28;20025;-65
2023/03/25 12:57:58;;;;;;;3.15;1.05;;;14.90;50.70;;;;;;5052286;28;20044;-66
2023/03/25 13:00:42;;;;;;;2.38;1.30;;;15.00;49.70;;;;;;5051829;28;20099;-64
2023/03/25 13:03:23;;;;;;;3.63;1.23;;;15.00;49.10;;;;;;5051719;28;20590;-65
2023/03/25 13:06:20;;;;;;;2.47;0.83;;;15.10;49.10;;;;;;5047593;28;20025;-65
2023/03/25 13:09:03;;;;;;;3.58;1.27;;;15.00;48.60;;;;;;5048659;28;20258;-64
2023/03/25 13:11:48;;;;;;;3.72;1.05;;;15.00;48.50;;;;;;5050630;28;20029;-64
2023/03/25 13:14:22;;;;;;;1.98;1.00;;;15.10;49.40;;;;;;5050105;28;20201;-65